Time;durP1;ratioP1;P1;durP2;ratioP2;P2;SDS_P1;SDS_P2;PMS_P1;PMS_P2;Temp;Humidity;BMP_temperature;BMP_pressure;BME280_temperature;BME280_humidity;BME280_pressure;Samples;Min_cycle;Max_cycle;Signal;HPM_P1;HPM_P2
2022/11/24 00:00:07;;;;;;;;;;;5.70;99.90;;;;;;4910576;29;20632;-73
2022/11/24 00:02:32;;;;;;;;;;;5.80;99.90;;;;;;4911885;29;19974;-73
2022/11/24 00:04:58;;;;;;;;;;;5.70;99.90;;;;;;4925464;29;19925;-73
2022/11/24 00:07:23;;;;;;;;;;;5.70;99.90;;;;;;4895715;29;20311;-73
2022/11/24 00:09:49;;;;;;;;;;;5.70;99.90;;;;;;4898853;29;19949;-73
2022/11/24 00:12:14;;;;;;;;;;;5.70;99.90;;;;;;4930516;29;19925;-73
2022/11/24 00:14:40;;;;;;;;;;;5.70;99.90;;;;;;4915231;29;20298;-74
2022/11/24 00:17:06;;;;;;;;;;;5.60;99.90;;;;;;4938384;29;19985;-74
2022/11/24 00:19:31;;;;;;;;;;;5.60;99.90;;;;;;4913993;29;19923;-74
2022/11/24 00:21:57;;;;;;;;;;;5.60;99.90;;;;;;4914556;29;19978;-74
2022/11/24 00:24:23;;;;;;;;;;;5.60;99.90;;;;;;4899061;29;19965;-74
2022/11/24 00:26:48;;;;;;;;;;;5.60;99.90;;;;;;4919027;29;19970;-74
2022/11/24 00:29:14;;;;;;;;;;;5.50;99.90;;;;;;4930336;29;19923;-74
2022/11/24 00:31:40;;;;;;;;;;;5.50;99.90;;;;;;4914563;29;19923;-74
2022/11/24 00:34:08;;;;;;;;;;;5.50;99.90;;;;;;4914611;29;19922;-74
2022/11/24 00:36:35;;;;;;;;;;;5.60;99.90;;;;;;4910002;29;20448;-73
2022/11/24 00:39:05;;;;;;;;;;;5.50;99.90;;;;;;4898319;29;19926;-74
2022/11/24 00:41:30;;;;;;;;;;;5.60;99.90;;;;;;4914687;29;19929;-74
2022/11/24 00:43:56;;;;;;;;;;;5.70;99.90;;;;;;4914894;29;19926;-74
2022/11/24 00:46:22;;;;;;;;;;;5.70;99.90;;;;;;4899802;29;20370;-74
2022/11/24 00:48:48;;;;;;;;;;;5.70;99.90;;;;;;4914411;29;19918;-74
2022/11/24 00:51:14;;;;;;;;;;;5.80;99.90;;;;;;4919550;29;19918;-74
2022/11/24 00:53:40;;;;;;;;;;;6.00;99.90;;;;;;4914602;29;20005;-74
2022/11/24 00:56:07;;;;;;;;;;;6.10;99.90;;;;;;4898950;29;19922;-74
2022/11/24 00:58:33;;;;;;;;;;;6.20;99.90;;;;;;4913263;29;19947;-74
2022/11/24 01:01:12;;;;;;;;;;;6.40;99.90;;;;;;4915820;29;20013;-74
2022/11/24 01:03:38;;;;;;;;;;;6.50;99.90;;;;;;4914161;29;19918;-74
2022/11/24 01:06:08;;;;;;;;;;;6.70;99.90;;;;;;4911039;29;19923;-74
2022/11/24 01:08:35;;;;;;;;;;;6.70;99.90;;;;;;4928730;29;19919;-74
2022/11/24 01:11:12;;;;;;;;;;;6.80;99.90;;;;;;4914039;29;19964;-74
2022/11/24 01:13:37;;;;;;;;;;;6.80;99.90;;;;;;4916752;29;19922;-74
2022/11/24 01:16:03;;;;;;;;;;;6.80;99.90;;;;;;4916330;29;19925;-74
2022/11/24 01:18:29;;;;;;;;;;;6.80;99.90;;;;;;4928904;29;19926;-74
2022/11/24 01:20:54;;;;;;;;;;;6.80;99.90;;;;;;4913578;29;20009;-74
2022/11/24 01:23:20;;;;;;;;;;;6.80;99.90;;;;;;4929248;29;20534;-74
2022/11/24 01:25:46;;;;;;;;;;;6.80;99.90;;;;;;4929297;29;20410;-74
2022/11/24 01:28:12;;;;;;;;;;;6.80;99.90;;;;;;4913042;29;19968;-74
2022/11/24 01:30:38;;;;;;;;;;;6.80;99.90;;;;;;4920547;29;19919;-74
2022/11/24 01:33:04;;;;;;;;;;;6.80;99.90;;;;;;4905211;29;20348;-74
2022/11/24 01:35:29;;;;;;;;;;;6.80;99.90;;;;;;4897283;29;19919;-74
2022/11/24 01:37:55;;;;;;;;;;;6.80;99.90;;;;;;4919002;29;20393;-74
2022/11/24 01:40:20;;;;;;;;;;;6.70;99.90;;;;;;4898906;29;19974;-74
2022/11/24 01:42:50;;;;;;;;;;;6.70;99.90;;;;;;4928574;29;20000;-74
2022/11/24 01:45:22;;;;;;;;;;;6.70;99.90;;;;;;4912896;29;19926;-74
2022/11/24 01:47:47;;;;;;;;;;;6.70;99.90;;;;;;4928851;29;20286;-74
2022/11/24 01:50:15;;;;;;;;;;;6.80;99.90;;;;;;4912099;29;19922;-74
2022/11/24 01:52:46;;;;;;;;;;;6.80;99.90;;;;;;4919319;29;19923;-74
2022/11/24 01:55:14;;;;;;;;;;;6.90;99.90;;;;;;4928713;28;19957;-74
2022/11/24 01:57:49;;;;;;;;;;;6.90;99.90;;;;;;4912700;29;20008;-74
2022/11/24 02:00:15;;;;;;;;;;;7.00;99.90;;;;;;4934991;28;19989;-74
2022/11/24 02:02:43;;;;;;;;;;;7.10;99.90;;;;;;4912600;29;20017;-74
2022/11/24 02:05:23;;;;;;;;;;;7.10;99.90;;;;;;4912924;29;20309;-74
2022/11/24 02:07:49;;;;;;;;;;;7.10;99.90;;;;;;4912306;29;20501;-74
2022/11/24 02:10:15;;;;;;;;;;;7.10;99.90;;;;;;4911359;29;19923;-74
2022/11/24 02:12:42;;;;;;;;;;;7.00;99.90;;;;;;4912056;29;20025;-74
2022/11/24 02:15:09;;;;;;;;;;;6.90;99.90;;;;;;4929790;29;19926;-74
2022/11/24 02:17:34;;;;;;;;;;;6.90;99.90;;;;;;4913873;29;20330;-74
2022/11/24 02:20:03;;;;;;;;;;;6.90;99.90;;;;;;4900043;29;19929;-74
2022/11/24 02:22:38;;;;;;;;;;;6.80;99.90;;;;;;4928946;29;20026;-74
2022/11/24 02:25:10;;;;;;;;;;;6.70;99.90;;;;;;4928862;29;20371;-74
2022/11/24 02:27:36;;;;;;;;;;;6.70;99.90;;;;;;4926897;29;20013;-74
2022/11/24 02:30:02;;;;;;;;;;;6.60;99.90;;;;;;4925374;29;20498;-74
2022/11/24 02:32:29;;;;;;;;;;;6.50;99.90;;;;;;4910376;29;19944;-74
2022/11/24 02:35:00;;;;;;;;;;;6.50;99.90;;;;;;4912109;29;19926;-74
2022/11/24 02:37:25;;;;;;;;;;;6.40;99.90;;;;;;4911658;29;19922;-74
2022/11/24 02:39:51;;;;;;;;;;;6.40;99.90;;;;;;4911035;29;20398;-74
2022/11/24 02:42:16;;;;;;;;;;;6.40;99.90;;;;;;4902790;29;19926;-74
2022/11/24 02:44:45;;;;;;;;;;;6.30;99.90;;;;;;4896259;29;19961;-74
2022/11/24 02:47:11;;;;;;;;;;;6.30;99.90;;;;;;4913753;29;19966;-74
2022/11/24 02:49:37;;;;;;;;;;;6.20;99.90;;;;;;4916040;29;20013;-74
2022/11/24 02:52:03;;;;;;;;;;;6.20;99.90;;;;;;4927630;29;20431;-74
2022/11/24 02:54:29;;;;;;;;;;;6.20;99.90;;;;;;4911989;29;20379;-74
2022/11/24 02:56:55;;;;;;;;;;;6.10;99.90;;;;;;4935547;29;19925;-74
2022/11/24 02:59:24;;;;;;;;;;;6.20;99.90;;;;;;4914047;29;20330;-74
2022/11/24 03:01:49;;;;;;;;;;;6.10;99.90;;;;;;4912357;29;19918;-74
2022/11/24 03:04:15;;;;;;;;;;;6.10;99.90;;;;;;4913179;29;19945;-74
2022/11/24 03:06:42;;;;;;;;;;;6.10;99.90;;;;;;4910609;29;19927;-74
2022/11/24 03:09:08;;;;;;;;;;;6.10;99.90;;;;;;4896573;29;19930;-74
2022/11/24 03:11:39;;;;;;;;;;;6.10;99.90;;;;;;4912510;29;20622;-74
2022/11/24 03:14:06;;;;;;;;;;;6.10;99.90;;;;;;4912206;29;19966;-74
2022/11/24 03:16:34;;;;;;;;;;;6.10;99.90;;;;;;4911735;29;20018;-74
2022/11/24 03:19:00;;;;;;;;;;;6.10;99.90;;;;;;4917451;29;20247;-74
2022/11/24 03:21:26;;;;;;;;;;;6.10;99.90;;;;;;4927387;29;19930;-74
2022/11/24 03:23:55;;;;;;;;;;;6.10;99.90;;;;;;4933935;29;19923;-74
2022/11/24 03:26:21;;;;;;;;;;;6.10;99.90;;;;;;4912430;29;19919;-74
2022/11/24 03:28:47;;;;;;;;;;;6.20;99.90;;;;;;4927236;29;19973;-74
2022/11/24 03:31:15;;;;;;;;;;;6.20;99.90;;;;;;4912179;29;20547;-74
2022/11/24 03:33:41;;;;;;;;;;;6.30;99.90;;;;;;4935169;29;19926;-74
2022/11/24 03:36:07;;;;;;;;;;;6.40;99.90;;;;;;4916372;29;19972;-74
2022/11/24 03:38:32;;;;;;;;;;;6.40;99.90;;;;;;4898619;29;20298;-74
2022/11/24 03:40:58;;;;;;;;;;;6.50;99.90;;;;;;4903193;29;19927;-74
2022/11/24 03:43:24;;;;;;;;;;;6.60;99.90;;;;;;4930019;29;20026;-74
2022/11/24 03:45:50;;;;;;;;;;;6.60;99.90;;;;;;4938657;29;20009;-74
2022/11/24 03:48:16;;;;;;;;;;;6.60;99.90;;;;;;4930671;29;20148;-74
2022/11/24 03:50:42;;;;;;;;;;;6.60;99.90;;;;;;4915397;29;20530;-74
2022/11/24 03:53:08;;;;;;;;;;;6.50;99.90;;;;;;4899836;29;20021;-74
2022/11/24 03:55:34;;;;;;;;;;;6.50;99.90;;;;;;4899213;29;19966;-74
2022/11/24 03:58:00;;;;;;;;;;;6.60;99.90;;;;;;4929978;29;19934;-74
2022/11/24 04:00:26;;;;;;;;;;;6.60;99.90;;;;;;4894607;29;19923;-74
2022/11/24 04:02:52;;;;;;;;;;;6.60;99.90;;;;;;4919350;29;19983;-74
2022/11/24 04:05:18;;;;;;;;;;;6.60;99.90;;;;;;4915091;29;20005;-74
2022/11/24 04:07:43;;;;;;;;;;;6.60;99.90;;;;;;4914243;29;19925;-74
2022/11/24 04:10:09;;;;;;;;;;;6.60;99.90;;;;;;4914291;29;20413;-74
2022/11/24 04:12:43;;;;;;;;;;;6.50;99.90;;;;;;4898786;29;20802;-74
2022/11/24 04:15:14;;;;;;;;;;;6.50;99.90;;;;;;4916504;29;20310;-74
2022/11/24 04:17:39;;;;;;;;;;;6.50;99.90;;;;;;4914353;29;19918;-74
2022/11/24 04:20:05;;;;;;;;;;;6.50;99.90;;;;;;4913990;29;20375;-74
2022/11/24 04:22:31;;;;;;;;;;;6.50;99.90;;;;;;4898205;29;19927;-74
2022/11/24 04:24:57;;;;;;;;;;;6.50;99.90;;;;;;4930260;29;20298;-74
2022/11/24 04:27:22;;;;;;;;;;;6.50;99.90;;;;;;4898273;29;19922;-74
2022/11/24 04:29:49;;;;;;;;;;;6.40;99.90;;;;;;4929298;29;20405;-74
2022/11/24 04:32:15;;;;;;;;;;;6.40;99.90;;;;;;4914769;29;20274;-74
2022/11/24 04:34:41;;;;;;;;;;;6.40;99.90;;;;;;4913815;29;20248;-74
2022/11/24 04:37:06;;;;;;;;;;;6.30;99.90;;;;;;4914133;29;19934;-74
2022/11/24 04:39:32;;;;;;;;;;;6.30;99.90;;;;;;4897526;29;19922;-74
2022/11/24 04:41:58;;;;;;;;;;;6.30;99.90;;;;;;4929747;29;20375;-74
2022/11/24 04:44:23;;;;;;;;;;;6.30;99.90;;;;;;4929911;29;19926;-74
2022/11/24 04:46:49;;;;;;;;;;;6.20;99.90;;;;;;4929968;29;19997;-74
2022/11/24 04:49:15;;;;;;;;;;;6.20;99.90;;;;;;4897255;29;19923;-74
2022/11/24 04:51:40;;;;;;;;;;;6.10;99.90;;;;;;4913216;29;20469;-74
2022/11/24 04:54:08;;;;;;;;;;;6.10;99.90;;;;;;4913505;29;20290;-74
2022/11/24 04:56:33;;;;;;;;;;;6.10;99.90;;;;;;4913901;29;19925;-74
2022/11/24 04:58:59;;;;;;;;;;;6.10;99.90;;;;;;4930148;29;19922;-74
2022/11/24 05:01:25;;;;;;;;;;;6.10;99.90;;;;;;4914462;29;20521;-74
2022/11/24 05:03:55;;;;;;;;;;;6.10;99.90;;;;;;4913545;29;19926;-74
2022/11/24 05:06:21;;;;;;;;;;;6.10;99.90;;;;;;4908124;29;19923;-74
2022/11/24 05:08:47;;;;;;;;;;;6.10;99.90;;;;;;4912174;29;19933;-74
2022/11/24 05:11:13;;;;;;;;;;;6.10;99.90;;;;;;4913863;29;20276;-75
2022/11/24 05:13:39;;;;;;;;;;;6.10;99.90;;;;;;4913319;29;19922;-74
2022/11/24 05:16:04;;;;;;;;;;;6.10;99.90;;;;;;4898355;29;19925;-74
2022/11/24 05:18:30;;;;;;;;;;;6.00;99.90;;;;;;4912888;29;19923;-74
2022/11/24 05:20:56;;;;;;;;;;;6.00;99.90;;;;;;4913119;29;20005;-74
2022/11/24 05:23:22;;;;;;;;;;;6.00;99.90;;;;;;4913327;29;19923;-74
2022/11/24 05:25:48;;;;;;;;;;;6.00;99.90;;;;;;4911897;29;20027;-74
2022/11/24 05:28:13;;;;;;;;;;;6.00;99.90;;;;;;4912445;29;19919;-74
2022/11/24 05:30:39;;;;;;;;;;;6.10;99.90;;;;;;4913104;29;19929;-74
2022/11/24 05:33:06;;;;;;;;;;;6.10;99.90;;;;;;4929016;29;19923;-74
2022/11/24 05:35:32;;;;;;;;;;;6.00;99.90;;;;;;4913193;29;20547;-74
2022/11/24 05:37:57;;;;;;;;;;;6.10;99.90;;;;;;4912337;29;20035;-74
2022/11/24 05:40:24;;;;;;;;;;;6.10;99.90;;;;;;4919915;29;19923;-74
2022/11/24 05:42:50;;;;;;;;;;;6.10;99.90;;;;;;4897672;29;20540;-74
2022/11/24 05:45:19;;;;;;;;;;;6.20;99.90;;;;;;4897037;29;20360;-74
2022/11/24 05:47:45;;;;;;;;;;;6.20;99.90;;;;;;4912633;29;19922;-74
2022/11/24 05:50:12;;;;;;;;;;;6.30;99.90;;;;;;4912751;29;20382;-74
2022/11/24 05:52:38;;;;;;;;;;;6.30;99.90;;;;;;4912747;29;19918;-74
2022/11/24 05:55:04;;;;;;;;;;;6.20;99.90;;;;;;4896685;29;20433;-74
2022/11/24 05:57:30;;;;;;;;;;;6.20;99.90;;;;;;4912363;29;20005;-74
2022/11/24 05:59:55;;;;;;;;;;;6.10;99.90;;;;;;4911840;29;20346;-74
2022/11/24 06:02:21;;;;;;;;;;;6.00;99.90;;;;;;4896902;29;19977;-74
2022/11/24 06:04:47;;;;;;;;;;;5.90;99.90;;;;;;4912283;29;19966;-74
2022/11/24 06:07:12;;;;;;;;;;;5.80;99.90;;;;;;4912049;29;20057;-74
2022/11/24 06:09:39;;;;;;;;;;;5.80;99.90;;;;;;4912426;29;19971;-74
2022/11/24 06:12:05;;;;;;;;;;;5.70;99.90;;;;;;4912762;29;19930;-74
2022/11/24 06:14:30;;;;;;;;;;;5.70;99.90;;;;;;4912317;29;19998;-74
2022/11/24 06:16:56;;;;;;;;;;;5.60;99.90;;;;;;4912656;29;20564;-74
2022/11/24 06:19:22;;;;;;;;;;;5.60;99.90;;;;;;4917171;29;19922;-74
2022/11/24 06:21:47;;;;;;;;;;;5.50;99.90;;;;;;4896958;29;20062;-74
2022/11/24 06:24:13;;;;;;;;;;;5.50;99.90;;;;;;4896646;29;20046;-74
2022/11/24 06:26:39;;;;;;;;;;;5.50;99.90;;;;;;4912546;29;19926;-74
2022/11/24 06:29:05;;;;;;;;;;;5.50;99.90;;;;;;4927614;29;20492;-74
2022/11/24 06:31:31;;;;;;;;;;;5.50;99.90;;;;;;4895987;29;19923;-74
2022/11/24 06:33:56;;;;;;;;;;;5.50;99.90;;;;;;4911633;29;19923;-74
2022/11/24 06:36:22;;;;;;;;;;;5.40;99.90;;;;;;4896893;29;19926;-74
2022/11/24 06:38:47;;;;;;;;;;;5.40;99.90;;;;;;4911150;29;19919;-74
2022/11/24 06:41:14;;;;;;;;;;;5.30;99.90;;;;;;4896134;29;19994;-74
2022/11/24 06:43:40;;;;;;;;;;;5.30;99.90;;;;;;4937477;28;20650;-74
2022/11/24 06:46:06;;;;;;;;;;;5.20;99.90;;;;;;4928003;29;19923;-74
2022/11/24 06:48:31;;;;;;;;;;;5.20;99.90;;;;;;4911247;29;19930;-73
2022/11/24 06:50:58;;;;;;;;;;;5.20;99.90;;;;;;4896293;29;19972;-74
2022/11/24 06:53:24;;;;;;;;;;;5.10;99.90;;;;;;4911531;29;19958;-74
2022/11/24 06:55:49;;;;;;;;;;;5.10;99.90;;;;;;4895860;29;19985;-74
2022/11/24 06:58:15;;;;;;;;;;;5.10;99.90;;;;;;4911854;29;19985;-74
2022/11/24 07:00:41;;;;;;;;;;;5.20;99.90;;;;;;4930543;29;19931;-74
2022/11/24 07:03:06;;;;;;;;;;;5.20;99.90;;;;;;4911449;29;19926;-74
2022/11/24 07:05:32;;;;;;;;;;;5.20;99.90;;;;;;4895267;29;20010;-75
2022/11/24 07:07:59;;;;;;;;;;;5.20;99.90;;;;;;4910677;29;20044;-74
2022/11/24 07:10:25;;;;;;;;;;;5.20;99.90;;;;;;4910951;29;19930;-74
2022/11/24 07:12:50;;;;;;;;;;;5.10;99.90;;;;;;4911407;29;19977;-74
2022/11/24 07:15:16;;;;;;;;;;;5.20;99.90;;;;;;4927317;29;19923;-74
2022/11/24 07:17:41;;;;;;;;;;;5.20;99.90;;;;;;4911943;29;19922;-74
2022/11/24 07:20:07;;;;;;;;;;;5.20;99.90;;;;;;4910392;29;19934;-74
2022/11/24 07:22:33;;;;;;;;;;;5.20;99.90;;;;;;4910675;29;19930;-74
2022/11/24 07:24:59;;;;;;;;;;;5.20;99.90;;;;;;4921038;29;20349;-74
2022/11/24 07:27:25;;;;;;;;;;;5.30;99.90;;;;;;4918058;29;20363;-75
2022/11/24 07:29:51;;;;;;;;;;;5.40;99.90;;;;;;4927257;29;20276;-74
2022/11/24 07:32:17;;;;;;;;;;;5.40;99.90;;;;;;4911305;29;19997;-74
2022/11/24 07:34:42;;;;;;;;;;;5.50;99.90;;;;;;4927511;29;19923;-74
2022/11/24 07:37:08;;;;;;;;;;;5.60;99.90;;;;;;4916997;29;19929;-75
2022/11/24 07:39:33;;;;;;;;;;;5.70;99.90;;;;;;4894914;29;19950;-74
2022/11/24 07:41:59;;;;;;;;;;;5.70;99.90;;;;;;4909578;29;19977;-74
2022/11/24 07:44:25;;;;;;;;;;;5.80;99.90;;;;;;4926621;29;19918;-74
2022/11/24 07:46:51;;;;;;;;;;;5.90;99.90;;;;;;4910496;29;19922;-74
2022/11/24 07:49:17;;;;;;;;;;;6.00;99.90;;;;;;4895204;29;20199;-74
2022/11/24 07:51:42;;;;;;;;;;;6.00;99.90;;;;;;4926831;29;19922;-74
2022/11/24 07:54:08;;;;;;;;;;;6.00;99.90;;;;;;4902221;29;20393;-74
2022/11/24 07:56:34;;;;;;;;;;;6.10;99.90;;;;;;4928291;29;19922;-74
2022/11/24 07:59:00;;;;;;;;;;;6.20;99.90;;;;;;4911322;29;19923;-74
2022/11/24 08:01:25;;;;;;;;;;;6.20;99.90;;;;;;4912122;29;19919;-74
2022/11/24 08:03:51;;;;;;;;;;;6.20;99.90;;;;;;4911621;29;19918;-74
2022/11/24 08:06:17;;;;;;;;;;;6.20;99.90;;;;;;4908113;29;19938;-74
2022/11/24 08:08:43;;;;;;;;;;;6.30;99.90;;;;;;4900119;29;19927;-74
2022/11/24 08:11:13;;;;;;;;;;;6.30;99.90;;;;;;4898244;29;19947;-74
2022/11/24 08:13:39;;;;;;;;;;;6.40;99.90;;;;;;4913831;29;20069;-74
2022/11/24 08:16:06;;;;;;;;;;;6.50;99.90;;;;;;4930132;29;20021;-74
2022/11/24 08:18:32;;;;;;;;;;;6.50;99.90;;;;;;4913000;29;19919;-74
2022/11/24 08:20:58;;;;;;;;;;;6.60;99.90;;;;;;4912614;29;19934;-74
2022/11/24 08:23:24;;;;;;;;;;;6.80;99.90;;;;;;4928813;29;20086;-74
2022/11/24 08:25:50;;;;;;;;;;;6.90;99.90;;;;;;4895970;29;20441;-74
2022/11/24 08:28:16;;;;;;;;;;;7.00;99.90;;;;;;4899663;29;19962;-74
2022/11/24 08:30:41;;;;;;;;;;;7.10;99.90;;;;;;4914957;29;19969;-74
2022/11/24 08:33:07;;;;;;;;;;;7.20;99.90;;;;;;4929977;29;19989;-74
2022/11/24 08:35:36;;;;;;;;;;;7.20;99.90;;;;;;4922114;29;19962;-74
2022/11/24 08:38:03;;;;;;;;;;;7.20;99.90;;;;;;4911419;29;19922;-74
2022/11/24 08:40:28;;;;;;;;;;;7.20;99.90;;;;;;4929228;29;20354;-74
2022/11/24 08:42:58;;;;;;;;;;;7.20;99.90;;;;;;4929822;29;19918;-74
2022/11/24 08:45:23;;;;;;;;;;;7.10;99.90;;;;;;4913874;29;19919;-74
2022/11/24 08:47:53;;;;;;;;;;;7.20;99.90;;;;;;4911567;29;20009;-74
2022/11/24 08:50:19;;;;;;;;;;;7.10;99.90;;;;;;4929827;29;20375;-74
2022/11/24 08:52:45;;;;;;;;;;;7.10;99.90;;;;;;4936334;29;19969;-74
2022/11/24 08:55:10;;;;;;;;;;;7.10;99.90;;;;;;4897904;29;19961;-74
2022/11/24 08:57:36;;;;;;;;;;;7.10;99.90;;;;;;4897968;29;20041;-74
2022/11/24 09:00:05;;;;;;;;;;;7.10;99.90;;;;;;4892541;29;19927;-74
2022/11/24 09:02:31;;;;;;;;;;;7.10;99.90;;;;;;4913833;29;19919;-74
2022/11/24 09:04:56;;;;;;;;;;;7.10;99.90;;;;;;4913260;29;19933;-74
2022/11/24 09:07:22;;;;;;;;;;;7.10;99.90;;;;;;4912341;29;19925;-74
2022/11/24 09:09:48;;;;;;;;;;;7.00;99.90;;;;;;4913524;29;19949;-74
2022/11/24 09:12:14;;;;;;;;;;;7.00;99.90;;;;;;4913305;29;19960;-75
2022/11/24 09:14:39;;;;;;;;;;;7.00;99.90;;;;;;4896942;29;19942;-74
2022/11/24 09:17:05;;;;;;;;;;;7.00;99.90;;;;;;4913697;29;19945;-75
2022/11/24 09:19:31;;;;;;;;;;;7.00;99.90;;;;;;4927569;29;20243;-74
2022/11/24 09:21:56;;;;;;;;;;;7.00;99.90;;;;;;4935316;29;19926;-74
2022/11/24 09:24:22;;;;;;;;;;;7.00;99.90;;;;;;4911931;29;19927;-74
2022/11/24 09:26:48;;;;;;;;;;;7.00;99.90;;;;;;4929049;29;19927;-74
2022/11/24 09:29:13;;;;;;;;;;;7.10;99.90;;;;;;4912124;29;19919;-75
2022/11/24 09:31:39;;;;;;;;;;;7.10;99.90;;;;;;4913217;29;20013;-74
2022/11/24 09:34:09;;;;;;;;;;;7.10;99.90;;;;;;4928502;29;20346;-74
2022/11/24 09:36:35;;;;;;;;;;;7.10;99.90;;;;;;4913071;29;19922;-74
2022/11/24 09:39:01;;;;;;;;;;;7.20;99.90;;;;;;4897340;29;19918;-74
2022/11/24 09:41:42;;;;;;;;;;;7.20;99.90;;;;;;4912422;29;20518;-74
2022/11/24 09:44:13;;;;;;;;;;;7.30;99.90;;;;;;4936102;29;19986;-74
2022/11/24 09:46:48;;;;;;;;;;;7.30;99.90;;;;;;4911855;29;19919;-74
2022/11/24 09:49:29;;;;;;;;;;;7.40;99.90;;;;;;4912401;29;19937;-74
2022/11/24 09:51:55;;;;;;;;;;;7.40;99.90;;;;;;4913384;29;19923;-74
2022/11/24 09:54:23;;;;;;;;;;;7.50;99.90;;;;;;4918835;29;19929;-74
2022/11/24 09:56:50;;;;;;;;;;;7.60;99.90;;;;;;4931406;29;20554;-74
2022/11/24 09:59:20;;;;;;;;;;;7.70;99.90;;;;;;4910514;29;19959;-74
2022/11/24 10:01:46;;;;;;;;;;;7.80;99.90;;;;;;4913074;29;20290;-74
2022/11/24 10:04:12;;;;;;;;;;;7.90;99.90;;;;;;4897182;29;19922;-74
2022/11/24 10:06:56;;;;;;;;;;;8.00;99.90;;;;;;4911183;29;20323;-74
2022/11/24 10:09:40;;;;;;;;;;;8.00;99.90;;;;;;4942286;28;20009;-74
2022/11/24 10:12:06;;;;;;;;;;;7.90;99.90;;;;;;4928179;29;19926;-74
2022/11/24 10:14:32;;;;;;;;;;;7.90;99.90;;;;;;4927736;29;19918;-74
2022/11/24 10:17:12;;;;;;;;;;;7.80;99.90;;;;;;4911934;29;19989;-74
2022/11/24 10:19:47;;;;;;;;;;;7.80;99.90;;;;;;4913068;29;19923;-74
2022/11/24 10:22:16;;;;;;;;;;;7.80;99.90;;;;;;4938716;29;19926;-74
2022/11/24 10:24:52;;;;;;;;;;;7.80;99.90;;;;;;4910763;29;19926;-74
2022/11/24 10:27:18;;;;;;;;;;;7.80;99.90;;;;;;4913749;29;19981;-74
2022/11/24 10:29:45;;;;;;;;;;;7.90;99.90;;;;;;4911249;29;19919;-74
2022/11/24 10:32:17;;;;;;;;;;;7.90;99.90;;;;;;4910076;29;19923;-74
2022/11/24 10:34:44;;;;;;;;;;;7.90;99.90;;;;;;4927845;29;20323;-74
2022/11/24 10:37:09;;;;;;;;;;;7.90;99.90;;;;;;4911327;29;20310;-74
2022/11/24 10:39:45;;;;;;;;;;;7.90;99.90;;;;;;4911196;29;19951;-73
2022/11/24 10:42:11;;;;;;;;;;;8.00;99.90;;;;;;4909574;29;19923;-74
2022/11/24 10:44:36;;;;;;;;;;;8.00;99.90;;;;;;4927831;29;19927;-74
2022/11/24 10:47:02;;;;;;;;;;;8.10;99.90;;;;;;4941774;29;19926;-74
2022/11/24 10:49:30;;;;;;;;;;;8.10;99.90;;;;;;4926396;29;20025;-74
2022/11/24 10:52:04;;;;;;;;;;;8.20;99.90;;;;;;4911101;29;19922;-74
2022/11/24 10:54:30;;;;;;;;;;;8.20;99.90;;;;;;4912871;29;19966;-74
2022/11/24 10:56:56;;;;;;;;;;;8.20;99.90;;;;;;4910210;29;19969;-73
2022/11/24 10:59:28;;;;;;;;;;;8.30;99.90;;;;;;4908843;29;19970;-74
2022/11/24 11:01:54;;;;;;;;;;;8.30;99.90;;;;;;4923260;29;20541;-74
2022/11/24 11:04:21;;;;;;;;;;;8.30;99.90;;;;;;4927019;29;19925;-74
2022/11/24 11:06:46;;;;;;;;;;;8.40;99.90;;;;;;4926552;29;21630;-75
2022/11/24 11:09:12;;;;;;;;;;;8.40;99.90;;;;;;4926172;29;19970;-74
2022/11/24 11:11:38;;;;;;;;;;;8.50;99.90;;;;;;4927164;29;20018;-74
2022/11/24 11:14:11;;;;;;;;;;;8.50;99.90;;;;;;4927120;29;19974;-74
2022/11/24 11:16:49;;;;;;;;;;;8.60;99.90;;;;;;4923850;29;19926;-74
2022/11/24 11:19:33;;;;;;;;;;;8.60;99.90;;;;;;4926401;29;19918;-74
2022/11/24 11:21:59;;;;;;;;;;;8.60;99.90;;;;;;4913735;29;19934;-74
2022/11/24 11:24:26;;;;;;;;;;;8.70;99.90;;;;;;4926601;29;20546;-74
2022/11/24 11:26:59;;;;;;;;;;;8.70;99.90;;;;;;4926089;29;19923;-74
2022/11/24 11:29:27;;;;;;;;;;;8.70;99.90;;;;;;4926783;29;20018;-74
2022/11/24 11:32:16;;;;;;;;;;;8.70;99.90;;;;;;4911891;29;20394;-74
2022/11/24 11:34:41;;;;;;;;;;;8.80;99.90;;;;;;4921342;29;19922;-74
2022/11/24 11:37:08;;;;;;;;;;;8.80;99.90;;;;;;4926531;29;20297;-74
2022/11/24 11:39:35;;;;;;;;;;;8.90;99.90;;;;;;4911144;29;19934;-74
2022/11/24 11:42:10;;;;;;;;;;;8.90;99.90;;;;;;4925401;28;20001;-74
2022/11/24 11:44:42;;;;;;;;;;;9.00;99.90;;;;;;4915664;29;20001;-74
2022/11/24 11:47:14;;;;;;;;;;;9.00;99.90;;;;;;4926292;29;20338;-74
2022/11/24 11:49:40;;;;;;;;;;;9.10;99.90;;;;;;4902782;29;20520;-74
2022/11/24 11:52:12;;;;;;;;;;;9.10;99.90;;;;;;4926800;29;20073;-74
2022/11/24 11:55:07;;;;;;;;;;;9.20;99.90;;;;;;4927508;29;19927;-74
2022/11/24 11:57:43;;;;;;;;;;;9.20;99.90;;;;;;4907999;29;19919;-74
2022/11/24 12:00:16;;;;;;;;;;;9.30;99.90;;;;;;4908853;29;19922;-73
2022/11/24 12:02:57;;;;;;;;;;;9.30;99.90;;;;;;4910347;29;19930;-73
2022/11/24 12:05:52;;;;;;;;;;;9.30;99.90;;;;;;4913583;29;20005;-74
2022/11/24 12:08:18;;;;;;;;;;;9.30;99.90;;;;;;4923320;29;19927;-74
2022/11/24 12:10:56;;;;;;;;;;;9.40;99.90;;;;;;4911596;29;20363;-74
2022/11/24 12:13:43;;;;;;;;;;;9.40;99.90;;;;;;4928040;29;19925;-74
2022/11/24 12:16:12;;;;;;;;;;;9.40;99.90;;;;;;4925412;29;19919;-74
2022/11/24 12:18:42;;;;;;;;;;;9.40;99.90;;;;;;4928835;29;19936;-74
2022/11/24 12:21:11;;;;;;;;;;;9.40;99.90;;;;;;4929088;29;19962;-74
2022/11/24 12:23:36;;;;;;;;;;;9.40;99.90;;;;;;4929313;29;19927;-74
2022/11/24 12:26:21;;;;;;;;;;;9.40;99.90;;;;;;4914509;29;20264;-74
2022/11/24 12:28:56;;;;;;;;;;;9.40;99.90;;;;;;4930137;29;20303;-74
2022/11/24 12:31:28;;;;;;;;;;;9.40;99.90;;;;;;4913900;29;19918;-74
2022/11/24 12:33:56;;;;;;;;;;;9.40;99.90;;;;;;4929091;29;19927;-74
2022/11/24 12:36:43;;;;;;;;;;;9.40;99.90;;;;;;4918349;29;19978;-74
2022/11/24 12:39:18;;;;;;;;;;;9.40;99.90;;;;;;4929465;29;19923;-74
2022/11/24 12:42:04;;;;;;;;;;;9.50;99.90;;;;;;4914157;29;19918;-75
2022/11/24 12:44:36;;;;;;;;;;;9.50;99.90;;;;;;4929241;29;19922;-74
2022/11/24 12:47:07;;;;;;;;;;;9.50;99.90;;;;;;4913566;29;19918;-74
2022/11/24 12:49:38;;;;;;;;;;;9.50;99.90;;;;;;4913992;29;19918;-75
2022/11/24 12:52:13;;;;;;;;;;;9.50;99.90;;;;;;4930072;29;19934;-74
2022/11/24 12:54:39;;;;;;;;;;;9.50;99.90;;;;;;4914468;29;20668;-74
2022/11/24 12:57:24;;;;;;;;;;;9.50;99.90;;;;;;5119280;27;20375;-73
2022/11/24 13:00:01;;;;;;;;;;;9.40;99.90;;;;;;5104839;28;19923;-73
2022/11/24 13:02:41;;;;;;;;;;;9.40;99.90;;;;;;5115566;27;19923;-73
2022/11/24 13:05:10;;;;;;;;;;;9.40;99.90;;;;;;5102053;27;19942;-73
2022/11/24 13:07:39;;;;;;;;;;;9.40;99.90;;;;;;5098706;27;19949;-73
2022/11/24 13:10:26;;;;;;;;;;;9.40;99.90;;;;;;5118454;27;19924;-73
2022/11/24 13:12:56;;;;;;;;;;;9.40;99.90;;;;;;5100698;28;19930;-73
2022/11/24 13:15:22;;;;;;;;;;;9.40;99.90;;;;;;5155798;27;20039;-73
2022/11/24 13:17:47;;;;;;;;;;;9.40;99.90;;;;;;5098407;28;20010;-73
2022/11/24 13:20:24;;;;;;;;;;;9.40;99.90;;;;;;5095512;28;20308;-73
2022/11/24 13:22:54;;;;;;;;;;;9.40;99.90;;;;;;5080207;28;19924;-73
2022/11/24 13:25:27;;;;;;;;;;;9.40;99.90;;;;;;5081864;28;20385;-73
2022/11/24 13:27:58;;;;;;;;;;;9.40;99.90;;;;;;5077740;28;20215;-73
2022/11/24 13:30:33;;;;;;;;;;;9.40;99.90;;;;;;5098318;28;20174;-73
2022/11/24 13:33:18;;;;;;;;;;;9.50;99.90;;;;;;5097392;28;20687;-73
2022/11/24 13:36:02;;;;;;;;;;;9.40;99.90;;;;;;5096253;28;19924;-73
2022/11/24 13:38:43;;;;;;;;;;;9.40;99.90;;;;;;5094844;28;19932;-73
2022/11/24 13:41:10;;;;;;;;;;;9.30;99.90;;;;;;5082978;28;19924;-73
2022/11/24 13:43:36;;;;;;;;;;;9.30;99.90;;;;;;5078932;28;19955;-73
2022/11/24 13:46:02;;;;;;;;;;;9.20;99.90;;;;;;5087940;28;19927;-73
2022/11/24 13:48:28;;;;;;;;;;;9.20;99.90;;;;;;5088791;28;20044;-73
2022/11/24 13:50:54;;;;;;;;;;;9.20;99.90;;;;;;5105492;28;19973;-73
2022/11/24 13:53:26;;;;;;;;;;;9.10;99.90;;;;;;5079828;28;20114;-72
2022/11/24 13:55:57;;;;;;;;;;;9.20;99.90;;;;;;5094141;28;19985;-73
2022/11/24 13:58:30;;;;;;;;;;;9.10;99.90;;;;;;5108619;28;19919;-73
2022/11/24 14:01:13;;;;;;;;;;;9.10;99.90;;;;;;5085142;28;20483;-73
2022/11/24 14:03:39;;;;;;;;;;;9.10;99.90;;;;;;5077546;28;19924;-73
2022/11/24 14:06:04;;;;;;;;;;;9.10;99.90;;;;;;5114746;28;19924;-73
2022/11/24 14:08:31;;;;;;;;;;;9.10;99.90;;;;;;5065982;28;20016;-72
2022/11/24 14:10:58;;;;;;;;;;;9.10;99.90;;;;;;5065079;28;20330;-73
2022/11/24 14:13:25;;;;;;;;;;;9.10;99.90;;;;;;5067764;28;19974;-73
2022/11/24 14:16:05;;;;;;;;;;;9.00;99.90;;;;;;5067912;28;19979;-73
2022/11/24 14:18:31;;;;;;;;;;;9.00;99.90;;;;;;5085307;28;19938;-73
2022/11/24 14:20:58;;;;;;;;;;;8.90;99.90;;;;;;5080292;28;20333;-73
2022/11/24 14:23:24;;;;;;;;;;;8.90;99.90;;;;;;5094132;28;19924;-73
2022/11/24 14:25:51;;;;;;;;;;;8.90;99.90;;;;;;5049797;28;19920;-73
2022/11/24 14:28:27;;;;;;;;;;;8.80;99.90;;;;;;5084226;28;19920;-73
2022/11/24 14:31:15;;;;;;;;;;;8.80;99.90;;;;;;5069022;28;20162;-73
2022/11/24 14:33:40;;;;;;;;;;;8.80;99.90;;;;;;5075564;28;20380;-73
2022/11/24 14:36:12;;;;;;;;;;;8.70;99.90;;;;;;5065748;28;19985;-73